createdAt,value
2023-04-09T00:04:36.101Z,17.98
2023-04-09T00:07:09.904Z,18.67
2023-04-09T00:09:50.641Z,22.40
2023-04-09T00:15:27.966Z,22.77
2023-04-09T00:18:12.501Z,20.20
2023-04-09T00:20:50.426Z,19.38
2023-04-09T00:23:21.058Z,15.90
2023-04-09T00:25:54.986Z,17.90
2023-04-09T00:31:12.947Z,22.17
2023-04-09T00:36:13.762Z,14.85
2023-04-09T00:38:42.523Z,21.75
2023-04-09T00:41:14.655Z,21.42
2023-04-09T00:43:48.698Z,23.83
2023-04-09T00:46:20.952Z,20.70
2023-04-09T00:48:52.345Z,25.08
2023-04-09T00:51:25.681Z,21.77
2023-04-09T00:53:58.479Z,22.30
2023-04-09T00:56:49.969Z,28.38
2023-04-09T00:59:18.864Z,24.83
2023-04-09T01:01:46.779Z,21.45
2023-04-09T01:04:15.109Z,24.33
2023-04-09T01:06:57.233Z,21.88
2023-04-09T01:09:29.309Z,23.48
2023-04-09T01:12:34.844Z,24.80
2023-04-09T01:15:18.196Z,20.88
2023-04-09T01:18:11.096Z,19.40
2023-04-09T01:20:57.811Z,23.25
2023-04-09T01:23:38.329Z,27.05
2023-04-09T01:26:26.318Z,18.63
2023-04-09T01:28:57.893Z,18.85
2023-04-09T01:31:34.903Z,19.10
2023-04-09T01:34:03.409Z,20.48
2023-04-09T01:36:32.587Z,23.20
2023-04-09T01:39:05.191Z,19.58
2023-04-09T01:41:34.883Z,24.23
2023-04-09T01:44:04.915Z,20.77
2023-04-09T01:46:36.896Z,26.88
2023-04-09T01:49:05.583Z,20.80
2023-04-09T01:51:34.765Z,16.65
2023-04-09T01:54:03.387Z,20.02
2023-04-09T01:56:45.642Z,20.05
2023-04-09T01:59:14.476Z,18.65
2023-04-09T02:01:50.815Z,16.83
2023-04-09T02:04:34.874Z,20.95
2023-04-09T02:07:16.067Z,15.27
2023-04-09T02:09:47.006Z,20.03
2023-04-09T02:12:18.625Z,21.15
2023-04-09T02:14:52.616Z,19.20
2023-04-09T02:17:21.279Z,17.85
2023-04-09T02:19:50.210Z,18.02
2023-04-09T02:22:19.047Z,19.02
2023-04-09T02:24:48.099Z,24.77
2023-04-09T02:27:16.736Z,35.15
2023-04-09T02:29:45.005Z,43.97
2023-04-09T02:32:14.822Z,31.25
2023-04-09T02:34:42.986Z,31.48
2023-04-09T02:37:11.282Z,27.67
2023-04-09T02:39:39.654Z,32.65
2023-04-09T02:42:08.186Z,32.92
2023-04-09T02:44:36.628Z,26.75
2023-04-09T02:47:05.097Z,22.40
2023-04-09T02:49:33.416Z,21.92
2023-04-09T02:52:01.609Z,22.25
2023-04-09T02:54:29.838Z,23.30
2023-04-09T02:56:57.951Z,19.63
2023-04-09T02:59:26.026Z,21.33
2023-04-09T03:01:54.408Z,20.38
2023-04-09T03:04:22.631Z,22.48
2023-04-09T03:06:51.945Z,21.27
2023-04-09T03:09:20.079Z,23.67
2023-04-09T03:11:48.324Z,22.80
2023-04-09T03:14:16.592Z,20.85
2023-04-09T03:16:46.259Z,17.42
2023-04-09T03:19:14.613Z,19.73
2023-04-09T03:21:43.273Z,16.23
2023-04-09T03:24:11.728Z,19.23
2023-04-09T03:26:41.289Z,22.67
2023-04-09T03:29:14.093Z,22.30
2023-04-09T03:31:42.890Z,21.10
2023-04-09T03:34:11.593Z,19.02
2023-04-09T03:36:39.711Z,19.10
2023-04-09T03:39:22.862Z,19.10
2023-04-09T03:41:51.075Z,14.80
2023-04-09T03:44:20.683Z,17.20
2023-04-09T03:46:58.748Z,14.57
2023-04-09T03:49:27.810Z,15.95
2023-04-09T03:51:59.936Z,17.48
2023-04-09T03:54:36.999Z,15.73
2023-04-09T03:57:10.688Z,15.18
2023-04-09T03:59:41.261Z,17.98
2023-04-09T04:05:51.589Z,14.30
2023-04-09T04:08:20.684Z,16.58
2023-04-09T04:10:49.002Z,18.95
2023-04-09T04:13:20.335Z,17.02
2023-04-09T04:15:54.173Z,16.55
2023-04-09T04:18:24.340Z,19.13
2023-04-09T04:20:54.482Z,20.25
2023-04-09T04:23:25.442Z,17.95
2023-04-09T04:26:00.101Z,17.85
2023-04-09T04:28:35.390Z,18.75
2023-04-09T04:31:07.573Z,17.77
2023-04-09T04:33:35.634Z,18.70
2023-04-09T04:36:15.528Z,19.80
2023-04-09T04:38:48.369Z,19.23
2023-04-09T04:41:31.682Z,22.42
2023-04-09T04:44:09.899Z,22.80
2023-04-09T04:46:39.214Z,21.20
2023-04-09T04:49:07.285Z,17.33
2023-04-09T04:51:42.442Z,21.15
2023-04-09T04:54:16.746Z,19.95
2023-04-09T04:56:54.382Z,17.90
2023-04-09T04:59:39.452Z,20.05
2023-04-09T05:02:10.140Z,20.92
2023-04-09T05:04:58.665Z,20.92
2023-04-09T05:07:35.441Z,18.83
2023-04-09T05:10:04.124Z,20.90
2023-04-09T05:12:38.488Z,20.30
2023-04-09T05:15:08.447Z,20.20
2023-04-09T05:17:38.656Z,17.08
2023-04-09T05:20:16.708Z,27.02
2023-04-09T05:22:53.270Z,22.40
2023-04-09T05:25:28.393Z,19.70
2023-04-09T05:27:57.549Z,21.38
2023-04-09T05:30:26.752Z,17.52
2023-04-09T05:32:56.173Z,26.02
2023-04-09T05:35:27.403Z,24.98
2023-04-09T05:37:55.938Z,27.45
2023-04-09T05:40:24.641Z,25.20
2023-04-09T05:42:54.173Z,23.27
2023-04-09T05:48:04.912Z,19.70
2023-04-09T05:50:38.176Z,21.23
2023-04-09T05:53:15.932Z,22.65
2023-04-09T05:55:45.249Z,22.02
2023-04-09T05:58:14.405Z,24.15
2023-04-09T06:00:42.586Z,25.58
2023-04-09T06:03:11.466Z,26.17
2023-04-09T06:05:39.658Z,28.50
2023-04-09T06:08:08.574Z,26.63
2023-04-09T06:10:38.796Z,24.35
2023-04-09T06:13:07.630Z,27.48
2023-04-09T06:15:39.566Z,26.33
2023-04-09T06:18:08.015Z,23.48
2023-04-09T06:20:36.350Z,24.60
2023-04-09T06:23:04.928Z,27.90
2023-04-09T06:25:33.170Z,28.85
2023-04-09T06:28:01.513Z,24.55
2023-04-09T06:30:31.361Z,27.35
2023-04-09T06:32:59.581Z,26.33
2023-04-09T06:35:28.572Z,29.45
2023-04-09T06:37:57.260Z,24.02
2023-04-09T06:40:25.402Z,28.75
2023-04-09T06:42:53.386Z,31.48
2023-04-09T06:45:28.036Z,23.67
2023-04-09T06:47:57.522Z,27.38
2023-04-09T06:50:25.823Z,25.48
2023-04-09T06:52:54.511Z,24.88
2023-04-09T06:55:22.686Z,27.15
2023-04-09T06:57:50.772Z,20.63
2023-04-09T07:00:19.500Z,26.63
2023-04-09T07:02:48.360Z,26.50
2023-04-09T07:05:16.822Z,26.00
2023-04-09T07:07:44.899Z,24.83
2023-04-09T07:10:12.972Z,26.13
2023-04-09T07:12:41.161Z,24.85
2023-04-09T07:15:09.671Z,23.33
2023-04-09T07:17:37.959Z,29.23
2023-04-09T07:20:06.976Z,22.30
2023-04-09T07:22:36.512Z,23.25
2023-04-09T07:25:05.057Z,25.20
2023-04-09T07:27:33.741Z,20.65
2023-04-09T07:30:02.392Z,26.45
2023-04-09T07:32:31.129Z,23.45
2023-04-09T07:34:59.780Z,19.33
2023-04-09T07:37:28.100Z,22.83
2023-04-09T07:39:56.054Z,23.65
2023-04-09T07:42:24.414Z,26.63
2023-04-09T07:44:52.484Z,24.70
2023-04-09T07:47:20.872Z,22.50
2023-04-09T07:49:49.389Z,24.80
2023-04-09T07:52:18.009Z,24.55
2023-04-09T07:54:46.342Z,25.50
2023-04-09T07:57:14.624Z,23.73
2023-04-09T07:59:42.672Z,22.38
2023-04-09T08:02:14.347Z,28.08
2023-04-09T08:04:43.270Z,23.48
2023-04-09T08:07:12.444Z,21.73
2023-04-09T08:09:42.895Z,22.75
2023-04-09T08:12:11.576Z,23.77
2023-04-09T08:14:39.637Z,22.90
2023-04-09T08:17:08.511Z,24.92
2023-04-09T08:19:37.555Z,24.35
2023-04-09T08:22:06.714Z,19.58
2023-04-09T08:24:34.944Z,21.58
2023-04-09T08:27:03.195Z,19.13
2023-04-09T08:29:32.284Z,20.67
2023-04-09T08:32:00.282Z,21.95
2023-04-09T08:34:28.892Z,23.40
2023-04-09T08:36:57.320Z,20.20
2023-04-09T08:39:25.666Z,24.17
2023-04-09T08:41:53.722Z,18.35
2023-04-09T08:44:22.393Z,20.10
2023-04-09T08:46:51.846Z,18.38
2023-04-09T08:49:21.597Z,18.75
2023-04-09T08:51:50.640Z,20.45
2023-04-09T08:54:21.953Z,20.50
2023-04-09T08:59:21.203Z,18.67
2023-04-09T09:04:22.628Z,16.23
2023-04-09T09:06:51.122Z,16.40
2023-04-09T09:09:19.350Z,19.70
2023-04-09T09:11:50.644Z,19.23
2023-04-09T09:16:58.012Z,19.65
2023-04-09T09:19:26.449Z,22.40
2023-04-09T09:22:02.729Z,19.98
2023-04-09T09:24:32.573Z,20.05
2023-04-09T09:27:01.762Z,20.00
2023-04-09T09:29:30.174Z,17.50
2023-04-09T09:31:58.146Z,19.27
2023-04-09T09:34:27.218Z,21.58
2023-04-09T09:36:56.705Z,20.75
2023-04-09T09:39:24.945Z,22.88
2023-04-09T09:42:08.519Z,22.23
2023-04-09T09:44:36.580Z,17.92
2023-04-09T09:47:05.326Z,20.45
2023-04-09T09:49:33.551Z,20.50
2023-04-09T09:52:03.266Z,20.98
2023-04-09T09:54:42.986Z,22.17
2023-04-09T09:57:13.911Z,20.38
2023-04-09T09:59:56.875Z,22.63
2023-04-09T10:02:27.265Z,22.88
2023-04-09T10:04:55.782Z,23.40
2023-04-09T10:07:24.610Z,21.77
2023-04-09T10:09:53.967Z,20.25
2023-04-09T10:12:26.446Z,19.98
2023-04-09T10:14:56.825Z,21.45
2023-04-09T10:17:24.886Z,20.33
2023-04-09T10:20:15.167Z,19.52
2023-04-09T10:22:47.537Z,20.48
2023-04-09T10:25:16.022Z,20.88
2023-04-09T10:27:49.573Z,23.30
2023-04-09T10:30:34.593Z,21.10
2023-04-09T10:33:17.081Z,22.85
2023-04-09T10:35:49.461Z,24.30
2023-04-09T10:38:18.310Z,18.33
2023-04-09T10:40:51.353Z,21.02
2023-04-09T10:43:23.917Z,20.85
2023-04-09T10:45:55.381Z,22.60
2023-04-09T10:48:27.526Z,22.13
2023-04-09T10:50:55.612Z,17.88
2023-04-09T10:53:26.338Z,17.92
2023-04-09T10:55:55.554Z,19.35
2023-04-09T10:58:23.776Z,16.95
2023-04-09T11:00:54.259Z,18.42
2023-04-09T11:03:32.630Z,19.33
2023-04-09T11:06:06.806Z,17.83
2023-04-09T11:08:35.709Z,16.80
2023-04-09T11:11:05.110Z,19.02
2023-04-09T11:13:34.851Z,15.93
2023-04-09T11:16:08.147Z,18.33
2023-04-09T11:18:38.492Z,17.23
2023-04-09T11:21:07.150Z,16.70
2023-04-09T11:23:35.753Z,16.45
2023-04-09T11:26:04.383Z,18.95
2023-04-09T11:28:33.336Z,16.00
2023-04-09T11:31:01.978Z,17.58
2023-04-09T11:33:34.902Z,18.20
2023-04-09T11:36:07.237Z,16.75
2023-04-09T11:38:37.176Z,16.90
2023-04-09T11:41:05.574Z,17.73
2023-04-09T11:43:36.977Z,16.58
2023-04-09T11:46:06.840Z,17.10
2023-04-09T11:48:36.123Z,13.95
2023-04-09T11:51:05.940Z,16.70
2023-04-09T11:53:34.645Z,14.57
2023-04-09T11:56:03.556Z,17.33
2023-04-09T11:58:33.029Z,16.08
2023-04-09T12:01:02.244Z,15.90
2023-04-09T12:03:37.472Z,13.82
2023-04-09T12:06:07.515Z,14.68
2023-04-09T12:08:43.331Z,12.63
2023-04-09T12:11:13.665Z,15.98
2023-04-09T12:13:43.684Z,13.32
2023-04-09T12:16:16.375Z,16.65
2023-04-09T12:18:45.280Z,15.05
2023-04-09T12:21:15.895Z,16.63
2023-04-09T12:23:45.553Z,16.45
2023-04-09T12:26:14.429Z,14.90
2023-04-09T12:28:43.227Z,14.02
2023-04-09T12:31:12.438Z,14.40
2023-04-09T12:33:43.227Z,15.85
2023-04-09T12:36:12.729Z,14.73
2023-04-09T12:38:41.572Z,13.73
2023-04-09T12:41:11.506Z,15.20
2023-04-09T12:43:39.957Z,14.50
2023-04-09T12:46:08.534Z,14.15
2023-04-09T12:48:36.655Z,15.77
2023-04-09T12:51:05.216Z,13.73
2023-04-09T12:53:33.603Z,13.02
2023-04-09T12:56:01.990Z,13.98
2023-04-09T12:58:30.183Z,14.93
2023-04-09T13:01:00.118Z,13.88
2023-04-09T13:03:29.483Z,13.25
2023-04-09T13:06:02.398Z,14.93
2023-04-09T13:08:32.471Z,14.15
2023-04-09T13:11:01.218Z,13.25
2023-04-09T13:13:31.299Z,14.20
2023-04-09T13:15:59.702Z,14.68
2023-04-09T13:18:27.788Z,13.52
2023-04-09T13:20:59.113Z,21.35
2023-04-09T13:23:27.376Z,15.18
2023-04-09T13:25:55.865Z,14.45
2023-04-09T13:28:24.094Z,14.07
2023-04-09T13:30:55.411Z,17.02
2023-04-09T13:33:23.681Z,13.50
2023-04-09T13:35:52.237Z,15.00
2023-04-09T13:38:21.011Z,15.32
2023-04-09T13:40:49.623Z,16.20
2023-04-09T13:43:18.653Z,15.63
2023-04-09T13:45:47.727Z,15.95
2023-04-09T13:48:16.289Z,15.85
2023-04-09T13:50:45.135Z,15.27
2023-04-09T13:53:14.659Z,17.38
2023-04-09T13:55:43.785Z,17.98
2023-04-09T13:58:12.971Z,17.63
2023-04-09T14:00:42.227Z,17.33
2023-04-09T14:03:15.701Z,16.30
2023-04-09T14:05:44.482Z,15.57
2023-04-09T14:08:14.193Z,16.10
2023-04-09T14:10:43.230Z,16.70
2023-04-09T14:13:12.991Z,15.50
2023-04-09T14:15:42.139Z,15.20
2023-04-09T14:18:11.305Z,14.57
2023-04-09T14:20:42.718Z,15.02
2023-04-09T14:23:12.720Z,23.35
2023-04-09T14:25:44.859Z,21.52
2023-04-09T14:28:14.346Z,15.10
2023-04-09T14:30:47.328Z,15.70
2023-04-09T14:33:17.138Z,16.05
2023-04-09T14:35:47.061Z,15.13
2023-04-09T14:38:15.628Z,16.77
2023-04-09T14:40:44.438Z,15.40
2023-04-09T14:43:15.343Z,14.63
2023-04-09T14:45:56.964Z,15.50
2023-04-09T14:48:25.240Z,17.42
2023-04-09T14:50:53.587Z,15.23
2023-04-09T14:53:21.778Z,16.88
2023-04-09T14:55:50.380Z,15.25
2023-04-09T14:58:18.856Z,16.60
2023-04-09T15:00:49.212Z,16.42
2023-04-09T15:03:17.936Z,15.48
2023-04-09T15:05:48.653Z,19.17
2023-04-09T15:08:17.946Z,16.63
2023-04-09T15:10:47.330Z,14.75
2023-04-09T15:13:15.830Z,18.05
2023-04-09T15:15:54.521Z,16.60
2023-04-09T15:18:22.733Z,16.98
2023-04-09T15:20:51.578Z,15.25
2023-04-09T15:23:19.977Z,17.35
2023-04-09T15:25:49.214Z,14.93
2023-04-09T15:28:17.931Z,15.02
2023-04-09T15:30:48.141Z,13.13
2023-04-09T15:33:17.527Z,15.10
2023-04-09T15:35:46.346Z,15.00
2023-04-09T15:38:14.535Z,15.02
2023-04-09T15:40:45.418Z,16.73
2023-04-09T15:43:15.132Z,15.60
2023-04-09T15:45:45.438Z,15.57
2023-04-09T15:48:13.886Z,16.60
2023-04-09T15:50:43.260Z,15.02
2023-04-09T15:53:11.856Z,16.10
2023-04-09T15:55:40.488Z,16.20
2023-04-09T15:58:09.269Z,17.60
2023-04-09T16:00:41.613Z,16.17
2023-04-09T16:03:11.160Z,18.15
2023-04-09T16:05:40.669Z,17.95
2023-04-09T16:08:09.428Z,15.68
2023-04-09T16:10:44.804Z,13.00
2023-04-09T16:13:13.797Z,15.23
2023-04-09T16:15:42.086Z,16.73
2023-04-09T16:18:12.214Z,15.70
2023-04-09T16:20:41.665Z,13.73
2023-04-09T16:23:11.092Z,15.13
2023-04-09T16:25:40.898Z,18.05
2023-04-09T16:28:09.553Z,15.02
2023-04-09T16:30:40.477Z,13.23
2023-04-09T16:35:41.370Z,16.08
2023-04-09T16:38:11.048Z,14.45
2023-04-09T16:40:43.239Z,15.77
2023-04-09T16:43:12.681Z,14.40
2023-04-09T16:45:41.217Z,14.13
2023-04-09T16:48:13.368Z,12.45
2023-04-09T16:50:45.334Z,14.77
2023-04-09T16:53:16.101Z,13.88
2023-04-09T16:55:45.359Z,15.60
2023-04-09T16:58:14.450Z,12.65
2023-04-09T17:00:46.950Z,12.77
2023-04-09T17:03:16.663Z,11.98
2023-04-09T17:05:50.211Z,13.57
2023-04-09T17:08:21.933Z,14.13
2023-04-09T17:10:55.218Z,13.75
2023-04-09T17:13:23.342Z,11.52
2023-04-09T17:15:52.457Z,14.10
2023-04-09T17:18:21.229Z,12.70
2023-04-09T17:20:50.512Z,14.88
2023-04-09T17:23:18.755Z,13.85
2023-04-09T17:25:48.851Z,12.35
2023-04-09T17:28:18.825Z,16.80
2023-04-09T17:30:47.701Z,17.48
2023-04-09T17:33:15.822Z,14.40
2023-04-09T17:35:44.372Z,16.20
2023-04-09T17:38:17.734Z,14.68
2023-04-09T17:40:46.823Z,15.77
2023-04-09T17:43:15.018Z,12.02
2023-04-09T17:45:43.740Z,16.55
2023-04-09T17:48:12.316Z,16.88
2023-04-09T17:50:42.562Z,15.57
2023-04-09T17:53:11.964Z,18.85
2023-04-09T17:55:40.916Z,17.70
2023-04-09T17:58:09.194Z,14.80
2023-04-09T18:00:38.020Z,15.95
2023-04-09T18:03:06.415Z,16.15
2023-04-09T18:05:35.558Z,17.40
2023-04-09T18:08:05.101Z,13.55
2023-04-09T18:10:33.418Z,15.50
2023-04-09T18:13:01.537Z,16.65
2023-04-09T18:15:31.536Z,12.90
2023-04-09T18:18:00.863Z,17.88
2023-04-09T18:20:29.049Z,14.95
2023-04-09T18:22:57.347Z,17.20
2023-04-09T18:25:25.863Z,16.23
2023-04-09T18:27:54.111Z,15.35
2023-04-09T18:30:22.434Z,16.17
2023-04-09T18:32:52.133Z,22.50
2023-04-09T18:35:20.565Z,21.83
2023-04-09T18:37:48.573Z,22.35
2023-04-09T18:40:18.873Z,22.33
2023-04-09T18:42:54.130Z,24.30
2023-04-09T18:45:22.578Z,22.23
2023-04-09T18:47:50.846Z,20.77
2023-04-09T18:50:19.386Z,21.60
2023-04-09T18:52:47.632Z,23.67
2023-04-09T18:55:16.574Z,18.73
2023-04-09T18:57:48.433Z,17.02
2023-04-09T19:00:16.889Z,17.48
2023-04-09T19:02:45.652Z,17.35
2023-04-09T19:05:14.501Z,17.05
2023-04-09T19:07:42.738Z,20.52
2023-04-09T19:10:11.360Z,18.73
2023-04-09T19:12:39.611Z,18.20
2023-04-09T19:15:08.406Z,20.15
2023-04-09T19:17:37.564Z,21.42
2023-04-09T19:20:06.517Z,21.17
2023-04-09T19:22:34.635Z,18.05
2023-04-09T19:25:02.921Z,20.02
2023-04-09T19:27:31.315Z,19.38
2023-04-09T19:30:01.379Z,21.13
2023-04-09T19:32:30.154Z,20.00
2023-04-09T19:34:58.275Z,20.17
2023-04-09T19:37:28.369Z,23.33
2023-04-09T19:39:56.888Z,19.67
2023-04-09T19:42:25.444Z,20.85
2023-04-09T19:44:54.840Z,20.52
2023-04-09T19:47:23.925Z,23.50
2023-04-09T19:49:52.264Z,23.98
2023-04-09T19:52:21.116Z,20.90
2023-04-09T19:54:53.560Z,22.52
2023-04-09T19:57:22.088Z,21.17
2023-04-09T19:59:53.978Z,24.90
2023-04-09T20:02:24.875Z,23.33
2023-04-09T20:04:54.705Z,21.38
2023-04-09T20:07:22.662Z,20.08
2023-04-09T20:09:51.054Z,23.75
2023-04-09T20:12:22.176Z,23.60
2023-04-09T20:14:50.308Z,27.48
2023-04-09T20:17:20.689Z,25.17
2023-04-09T20:19:50.115Z,22.80
2023-04-09T20:22:18.563Z,25.00
2023-04-09T20:24:46.890Z,25.50
2023-04-09T20:27:15.499Z,22.75
2023-04-09T20:29:43.773Z,22.52
2023-04-09T20:32:12.445Z,21.20
2023-04-09T20:34:41.128Z,19.63
2023-04-09T20:37:09.671Z,21.35
2023-04-09T20:39:38.123Z,17.45
2023-04-09T20:42:06.792Z,30.55
2023-04-09T20:44:35.718Z,34.47
2023-04-09T20:47:03.852Z,27.90
2023-04-09T20:49:32.151Z,28.20
2023-04-09T20:52:01.667Z,29.77
2023-04-09T20:54:30.698Z,26.92
2023-04-09T20:56:58.950Z,24.30
2023-04-09T20:59:28.427Z,19.10
2023-04-09T21:01:57.579Z,19.27
2023-04-09T21:04:26.392Z,18.35
2023-04-09T21:06:55.068Z,21.95
2023-04-09T21:09:25.470Z,20.23
2023-04-09T21:11:53.767Z,21.42
2023-04-09T21:14:21.912Z,21.23
2023-04-09T21:16:50.730Z,23.20
2023-04-09T21:19:19.373Z,20.67
2023-04-09T21:21:47.917Z,21.67
2023-04-09T21:24:17.203Z,23.92
2023-04-09T21:26:51.535Z,20.58
2023-04-09T21:29:23.214Z,24.38
2023-04-09T21:31:51.798Z,28.00
2023-04-09T21:34:20.040Z,30.52
2023-04-09T21:36:50.624Z,28.27
2023-04-09T21:39:19.897Z,23.95
2023-04-09T21:41:48.494Z,22.85
2023-04-09T21:44:16.822Z,20.70
2023-04-09T21:46:45.708Z,17.95
2023-04-09T21:49:14.362Z,17.83
2023-04-09T21:51:42.938Z,17.35
2023-04-09T21:54:11.834Z,23.05
2023-04-09T21:56:40.945Z,21.58
2023-04-09T21:59:09.533Z,18.15
2023-04-09T22:01:38.165Z,19.92
2023-04-09T22:04:07.196Z,16.65
2023-04-09T22:06:35.591Z,18.45
2023-04-09T22:09:04.288Z,16.05
2023-04-09T22:11:34.501Z,18.73
2023-04-09T22:14:03.019Z,18.80
2023-04-09T22:16:31.647Z,20.00
2023-04-09T22:19:00.077Z,16.38
2023-04-09T22:21:28.143Z,18.40
2023-04-09T22:23:56.348Z,18.17
2023-04-09T22:26:25.380Z,18.30
2023-04-09T22:28:53.987Z,18.65
2023-04-09T22:31:23.068Z,20.75
2023-04-09T22:33:51.383Z,20.88
2023-04-09T22:36:19.541Z,20.27
2023-04-09T22:38:50.390Z,20.30
2023-04-09T22:41:20.316Z,21.05
2023-04-09T22:43:48.967Z,21.23
2023-04-09T22:46:17.163Z,20.83
2023-04-09T22:48:48.859Z,19.42
2023-04-09T22:51:18.108Z,20.00
2023-04-09T22:53:48.194Z,19.65
2023-04-09T22:56:17.136Z,21.52
2023-04-09T22:58:45.814Z,20.85
2023-04-09T23:01:14.114Z,21.20
2023-04-09T23:03:42.383Z,22.95
2023-04-09T23:06:10.701Z,20.65
2023-04-09T23:08:40.845Z,22.15
2023-04-09T23:11:09.237Z,21.98
2023-04-09T23:13:37.896Z,20.60
2023-04-09T23:16:10.659Z,22.52
2023-04-09T23:18:39.444Z,21.08
2023-04-09T23:21:09.234Z,21.05
2023-04-09T23:23:38.293Z,18.65
2023-04-09T23:26:07.676Z,16.95
2023-04-09T23:28:36.845Z,23.30
2023-04-09T23:31:08.247Z,20.60
2023-04-09T23:33:36.619Z,24.70
2023-04-09T23:36:05.324Z,27.63
2023-04-09T23:38:37.248Z,20.67
2023-04-09T23:41:06.609Z,18.70
2023-04-09T23:43:35.130Z,22.08
2023-04-09T23:46:03.772Z,16.98
2023-04-09T23:48:32.441Z,18.45
2023-04-09T23:51:01.144Z,21.45
2023-04-09T23:53:29.191Z,19.63
2023-04-09T23:55:57.086Z,22.73
2023-04-09T23:58:25.060Z,21.42
